sensor_id;sensor_type;location;lat;lon;timestamp;temperature;humidity
58951;DHT22;44730;53.158;6.398;2022-12-18T00:00:40;-3.40;99.90
58951;DHT22;44730;53.158;6.398;2022-12-18T00:03:07;-3.50;99.90
58951;DHT22;44730;53.158;6.398;2022-12-18T00:05:32;-3.40;99.90
58951;DHT22;44730;53.158;6.398;2022-12-18T00:07:58;-3.60;99.90
58951;DHT22;44730;53.158;6.398;2022-12-18T00:10:24;-2.70;99.90
58951;DHT22;44730;53.158;6.398;2022-12-18T00:12:49;-2.30;99.90
58951;DHT22;44730;53.158;6.398;2022-12-18T00:15:15;-1.50;99.90
58951;DHT22;44730;53.158;6.398;2022-12-18T00:17:41;-3.50;99.90
58951;DHT22;44730;53.158;6.398;2022-12-18T00:20:07;-1.70;99.90
58951;DHT22;44730;53.158;6.398;2022-12-18T00:22:33;-3.50;99.90
58951;DHT22;44730;53.158;6.398;2022-12-18T00:24:58;-3.60;99.90
58951;DHT22;44730;53.158;6.398;2022-12-18T00:27:24;-3.70;99.90
58951;DHT22;44730;53.158;6.398;2022-12-18T00:29:50;-2.60;99.90
58951;DHT22;44730;53.158;6.398;2022-12-18T00:32:15;-3.70;99.90
58951;DHT22;44730;53.158;6.398;2022-12-18T00:34:41;-3.80;99.90
58951;DHT22;44730;53.158;6.398;2022-12-18T00:37:07;-3.80;99.90
58951;DHT22;44730;53.158;6.398;2022-12-18T00:39:32;-2.70;99.90
58951;DHT22;44730;53.158;6.398;2022-12-18T00:42:01;-3.90;99.90
58951;DHT22;44730;53.158;6.398;2022-12-18T00:44:45;-3.80;99.90
58951;DHT22;44730;53.158;6.398;2022-12-18T00:47:11;-3.80;99.90
58951;DHT22;44730;53.158;6.398;2022-12-18T00:49:37;-3.90;99.90
58951;DHT22;44730;53.158;6.398;2022-12-18T00:52:02;-3.90;99.90
58951;DHT22;44730;53.158;6.398;2022-12-18T00:54:28;-3.90;99.90
58951;DHT22;44730;53.158;6.398;2022-12-18T00:56:54;-3.90;99.90
58951;DHT22;44730;53.158;6.398;2022-12-18T00:59:20;-4.00;99.90
58951;DHT22;44730;53.158;6.398;2022-12-18T01:01:46;-4.00;99.90
58951;DHT22;44730;53.158;6.398;2022-12-18T01:04:13;-2.20;99.90
58951;DHT22;44730;53.158;6.398;2022-12-18T01:06:38;-4.20;99.90
58951;DHT22;44730;53.158;6.398;2022-12-18T01:09:05;-4.10;99.90
58951;DHT22;44730;53.158;6.398;2022-12-18T01:11:30;-2.50;99.90
58951;DHT22;44730;53.158;6.398;2022-12-18T01:13:56;-4.00;99.90
58951;DHT22;44730;53.158;6.398;2022-12-18T01:16:22;-4.10;99.90
58951;DHT22;44730;53.158;6.398;2022-12-18T01:18:51;-4.00;99.90
58951;DHT22;44730;53.158;6.398;2022-12-18T01:21:17;-4.40;99.90
58951;DHT22;44730;53.158;6.398;2022-12-18T01:23:43;-2.80;99.90
58951;DHT22;44730;53.158;6.398;2022-12-18T01:26:11;-4.10;99.90
58951;DHT22;44730;53.158;6.398;2022-12-18T01:28:37;-4.20;99.90
58951;DHT22;44730;53.158;6.398;2022-12-18T01:31:33;-4.20;99.90
58951;DHT22;44730;53.158;6.398;2022-12-18T01:34:03;-4.20;99.90
58951;DHT22;44730;53.158;6.398;2022-12-18T01:36:34;-4.40;99.90
58951;DHT22;44730;53.158;6.398;2022-12-18T01:39:03;-2.70;99.90
58951;DHT22;44730;53.158;6.398;2022-12-18T01:41:30;-2.60;99.90
58951;DHT22;44730;53.158;6.398;2022-12-18T01:47:43;-4.40;99.90
58951;DHT22;44730;53.158;6.398;2022-12-18T01:50:22;-4.40;99.90
58951;DHT22;44730;53.158;6.398;2022-12-18T01:52:55;-4.60;99.90
58951;DHT22;44730;53.158;6.398;2022-12-18T01:55:25;-4.20;99.90
58951;DHT22;44730;53.158;6.398;2022-12-18T01:57:57;-4.60;99.90
58951;DHT22;44730;53.158;6.398;2022-12-18T02:00:24;-4.60;99.90
58951;DHT22;44730;53.158;6.398;2022-12-18T02:02:50;-4.70;99.90
58951;DHT22;44730;53.158;6.398;2022-12-18T02:06:01;-4.20;99.90
58951;DHT22;44730;53.158;6.398;2022-12-18T02:11:58;-4.80;99.90
58951;DHT22;44730;53.158;6.398;2022-12-18T02:16:57;-4.90;99.90
58951;DHT22;44730;53.158;6.398;2022-12-18T02:25:40;-4.80;99.90
58951;DHT22;44730;53.158;6.398;2022-12-18T02:28:10;-4.80;99.90
58951;DHT22;44730;53.158;6.398;2022-12-18T02:30:37;-4.80;99.90
58951;DHT22;44730;53.158;6.398;2022-12-18T02:33:06;-4.70;99.90
58951;DHT22;44730;53.158;6.398;2022-12-18T02:35:33;-4.80;99.90
58951;DHT22;44730;53.158;6.398;2022-12-18T02:38:00;-4.80;99.90
58951;DHT22;44730;53.158;6.398;2022-12-18T02:40:28;-4.80;99.90
58951;DHT22;44730;53.158;6.398;2022-12-18T02:42:54;-4.70;99.90
58951;DHT22;44730;53.158;6.398;2022-12-18T02:45:20;-4.80;99.90
58951;DHT22;44730;53.158;6.398;2022-12-18T02:47:48;-4.80;99.90
58951;DHT22;44730;53.158;6.398;2022-12-18T02:51:07;-4.90;99.90
58951;DHT22;44730;53.158;6.398;2022-12-18T02:53:43;-4.90;99.90
58951;DHT22;44730;53.158;6.398;2022-12-18T02:56:15;-5.00;99.90
58951;DHT22;44730;53.158;6.398;2022-12-18T03:04:26;-4.70;99.90
58951;DHT22;44730;53.158;6.398;2022-12-18T03:06:57;-5.10;99.90
58951;DHT22;44730;53.158;6.398;2022-12-18T03:09:32;-4.40;99.90
58951;DHT22;44730;53.158;6.398;2022-12-18T03:12:16;-5.20;99.90
58951;DHT22;44730;53.158;6.398;2022-12-18T03:14:54;-5.20;99.90
58951;DHT22;44730;53.158;6.398;2022-12-18T03:17:25;-5.30;99.90
58951;DHT22;44730;53.158;6.398;2022-12-18T03:19:53;-5.20;99.90
58951;DHT22;44730;53.158;6.398;2022-12-18T03:22:21;-5.40;99.90
58951;DHT22;44730;53.158;6.398;2022-12-18T03:24:48;-5.30;99.90
58951;DHT22;44730;53.158;6.398;2022-12-18T03:27:17;-3.40;99.90
58951;DHT22;44730;53.158;6.398;2022-12-18T03:29:53;-3.70;99.90
58951;DHT22;44730;53.158;6.398;2022-12-18T03:32:29;-5.90;99.90
58951;DHT22;44730;53.158;6.398;2022-12-18T03:34:57;-5.40;99.90
58951;DHT22;44730;53.158;6.398;2022-12-18T03:37:24;-6.70;99.90
58951;DHT22;44730;53.158;6.398;2022-12-18T03:39:49;-3.50;99.90
58951;DHT22;44730;53.158;6.398;2022-12-18T03:42:28;-3.90;99.90
58951;DHT22;44730;53.158;6.398;2022-12-18T03:45:11;-5.40;99.90
58951;DHT22;44730;53.158;6.398;2022-12-18T03:50:24;-5.70;99.90
58951;DHT22;44730;53.158;6.398;2022-12-18T03:53:22;-5.60;99.90
58951;DHT22;44730;53.158;6.398;2022-12-18T03:55:51;-5.50;99.90
58951;DHT22;44730;53.158;6.398;2022-12-18T03:58:20;-5.50;99.90
58951;DHT22;44730;53.158;6.398;2022-12-18T04:00:49;-5.60;99.90
58951;DHT22;44730;53.158;6.398;2022-12-18T04:03:18;-5.50;99.90
58951;DHT22;44730;53.158;6.398;2022-12-18T04:05:46;-5.60;99.90
58951;DHT22;44730;53.158;6.398;2022-12-18T04:08:13;-5.60;99.90
58951;DHT22;44730;53.158;6.398;2022-12-18T04:10:39;-5.60;99.90
58951;DHT22;44730;53.158;6.398;2022-12-18T04:13:04;-5.60;99.90
58951;DHT22;44730;53.158;6.398;2022-12-18T04:15:33;-5.70;99.90
58951;DHT22;44730;53.158;6.398;2022-12-18T04:18:00;-5.60;99.90
58951;DHT22;44730;53.158;6.398;2022-12-18T04:20:25;-5.70;99.90
58951;DHT22;44730;53.158;6.398;2022-12-18T04:22:51;-5.80;99.90
58951;DHT22;44730;53.158;6.398;2022-12-18T04:25:18;-5.80;99.90
58951;DHT22;44730;53.158;6.398;2022-12-18T04:27:43;-3.70;99.90
58951;DHT22;44730;53.158;6.398;2022-12-18T04:30:09;-3.60;99.90
58951;DHT22;44730;53.158;6.398;2022-12-18T04:32:35;-5.70;99.90
58951;DHT22;44730;53.158;6.398;2022-12-18T04:35:01;-4.80;99.90
58951;DHT22;44730;53.158;6.398;2022-12-18T04:37:29;-5.70;99.90
58951;DHT22;44730;53.158;6.398;2022-12-18T04:39:55;-5.90;99.90
58951;DHT22;44730;53.158;6.398;2022-12-18T04:42:21;-5.80;99.90
58951;DHT22;44730;53.158;6.398;2022-12-18T04:44:46;-5.80;99.90
58951;DHT22;44730;53.158;6.398;2022-12-18T04:47:12;-5.90;99.90
58951;DHT22;44730;53.158;6.398;2022-12-18T04:49:38;-6.10;99.90
58951;DHT22;44730;53.158;6.398;2022-12-18T04:52:04;-7.60;99.90
58951;DHT22;44730;53.158;6.398;2022-12-18T04:54:33;-5.90;99.90
58951;DHT22;44730;53.158;6.398;2022-12-18T04:56:59;-5.90;99.90
58951;DHT22;44730;53.158;6.398;2022-12-18T04:59:25;-5.90;99.90
58951;DHT22;44730;53.158;6.398;2022-12-18T05:01:51;-5.90;99.90
58951;DHT22;44730;53.158;6.398;2022-12-18T05:04:16;-5.80;99.90
58951;DHT22;44730;53.158;6.398;2022-12-18T05:06:42;-5.90;99.90
58951;DHT22;44730;53.158;6.398;2022-12-18T05:09:08;-5.90;99.90
58951;DHT22;44730;53.158;6.398;2022-12-18T05:11:33;-6.00;99.90
58951;DHT22;44730;53.158;6.398;2022-12-18T05:13:59;-5.90;99.90
58951;DHT22;44730;53.158;6.398;2022-12-18T05:16:24;-5.90;99.90
58951;DHT22;44730;53.158;6.398;2022-12-18T05:18:50;-5.90;99.90
58951;DHT22;44730;53.158;6.398;2022-12-18T05:21:16;-6.00;99.90
58951;DHT22;44730;53.158;6.398;2022-12-18T05:23:41;-6.00;99.90
58951;DHT22;44730;53.158;6.398;2022-12-18T05:26:07;-5.90;99.90
58951;DHT22;44730;53.158;6.398;2022-12-18T05:28:35;-6.00;99.90
58951;DHT22;44730;53.158;6.398;2022-12-18T05:31:02;-6.00;99.90
58951;DHT22;44730;53.158;6.398;2022-12-18T05:33:33;-6.00;99.90
58951;DHT22;44730;53.158;6.398;2022-12-18T05:36:01;-4.00;99.90
58951;DHT22;44730;53.158;6.398;2022-12-18T05:38:28;-6.00;99.90
58951;DHT22;44730;53.158;6.398;2022-12-18T05:40:54;-6.00;99.90
58951;DHT22;44730;53.158;6.398;2022-12-18T05:43:21;-5.00;99.90
58951;DHT22;44730;53.158;6.398;2022-12-18T05:45:47;-6.00;99.90
58951;DHT22;44730;53.158;6.398;2022-12-18T05:48:13;-6.00;99.90
58951;DHT22;44730;53.158;6.398;2022-12-18T05:50:42;-6.00;99.90
58951;DHT22;44730;53.158;6.398;2022-12-18T05:53:08;-6.00;99.90
58951;DHT22;44730;53.158;6.398;2022-12-18T05:55:38;-6.20;99.90
58951;DHT22;44730;53.158;6.398;2022-12-18T05:58:06;-6.10;99.90
58951;DHT22;44730;53.158;6.398;2022-12-18T06:00:34;-6.10;99.90
58951;DHT22;44730;53.158;6.398;2022-12-18T06:03:01;-6.10;99.90
58951;DHT22;44730;53.158;6.398;2022-12-18T06:05:27;-6.10;99.90
58951;DHT22;44730;53.158;6.398;2022-12-18T06:07:53;-6.10;99.90
58951;DHT22;44730;53.158;6.398;2022-12-18T06:10:19;-6.20;99.90
58951;DHT22;44730;53.158;6.398;2022-12-18T06:12:44;-6.10;99.90
58951;DHT22;44730;53.158;6.398;2022-12-18T06:15:11;-6.20;99.90
58951;DHT22;44730;53.158;6.398;2022-12-18T06:17:37;-6.20;99.90
58951;DHT22;44730;53.158;6.398;2022-12-18T06:20:04;-5.20;99.90
58951;DHT22;44730;53.158;6.398;2022-12-18T06:22:33;-6.10;99.90
58951;DHT22;44730;53.158;6.398;2022-12-18T06:25:00;-6.20;99.90
58951;DHT22;44730;53.158;6.398;2022-12-18T06:27:26;-6.20;99.90
58951;DHT22;44730;53.158;6.398;2022-12-18T06:29:52;-6.20;99.90
58951;DHT22;44730;53.158;6.398;2022-12-18T06:32:17;-6.20;99.90
58951;DHT22;44730;53.158;6.398;2022-12-18T06:34:43;-6.30;99.90
58951;DHT22;44730;53.158;6.398;2022-12-18T06:37:09;-6.40;99.90
58951;DHT22;44730;53.158;6.398;2022-12-18T06:39:34;-6.30;99.90
58951;DHT22;44730;53.158;6.398;2022-12-18T06:42:00;-6.30;99.90
58951;DHT22;44730;53.158;6.398;2022-12-18T06:44:26;-6.30;99.90
58951;DHT22;44730;53.158;6.398;2022-12-18T06:46:52;-3.80;99.90
58951;DHT22;44730;53.158;6.398;2022-12-18T06:49:17;-6.30;99.90
58951;DHT22;44730;53.158;6.398;2022-12-18T06:51:43;-6.20;99.90
58951;DHT22;44730;53.158;6.398;2022-12-18T06:54:09;-6.30;99.90
58951;DHT22;44730;53.158;6.398;2022-12-18T06:56:34;-6.30;99.90
58951;DHT22;44730;53.158;6.398;2022-12-18T06:59:00;-5.60;99.90
58951;DHT22;44730;53.158;6.398;2022-12-18T07:01:26;-6.30;99.90
58951;DHT22;44730;53.158;6.398;2022-12-18T07:03:56;-6.20;99.90
58951;DHT22;44730;53.158;6.398;2022-12-18T07:06:23;-6.30;99.90
58951;DHT22;44730;53.158;6.398;2022-12-18T07:08:50;-6.40;99.90
58951;DHT22;44730;53.158;6.398;2022-12-18T07:11:17;-4.60;99.90
58951;DHT22;44730;53.158;6.398;2022-12-18T07:13:43;-5.00;99.90
58951;DHT22;44730;53.158;6.398;2022-12-18T07:16:11;-4.10;99.90
58951;DHT22;44730;53.158;6.398;2022-12-18T07:18:37;-6.10;99.90
58951;DHT22;44730;53.158;6.398;2022-12-18T07:21:08;-6.10;99.90
58951;DHT22;44730;53.158;6.398;2022-12-18T07:23:35;-6.10;99.90
58951;DHT22;44730;53.158;6.398;2022-12-18T07:26:02;-6.10;99.90
58951;DHT22;44730;53.158;6.398;2022-12-18T07:28:29;-6.10;99.90
58951;DHT22;44730;53.158;6.398;2022-12-18T07:30:55;-6.20;99.90
58951;DHT22;44730;53.158;6.398;2022-12-18T07:33:20;-4.80;99.90
58951;DHT22;44730;53.158;6.398;2022-12-18T07:35:46;-4.80;99.90
58951;DHT22;44730;53.158;6.398;2022-12-18T07:38:11;-6.30;99.90
58951;DHT22;44730;53.158;6.398;2022-12-18T07:40:37;-6.00;99.90
58951;DHT22;44730;53.158;6.398;2022-12-18T07:43:04;-6.00;99.90
58951;DHT22;44730;53.158;6.398;2022-12-18T07:45:29;-3.50;99.90
58951;DHT22;44730;53.158;6.398;2022-12-18T07:47:55;-5.80;99.90
58951;DHT22;44730;53.158;6.398;2022-12-18T07:50:23;-3.80;99.90
58951;DHT22;44730;53.158;6.398;2022-12-18T07:52:49;-5.90;99.90
58951;DHT22;44730;53.158;6.398;2022-12-18T07:55:15;-5.80;99.90
58951;DHT22;44730;53.158;6.398;2022-12-18T07:57:41;-5.70;99.90
58951;DHT22;44730;53.158;6.398;2022-12-18T08:00:07;-5.80;99.90
58951;DHT22;44730;53.158;6.398;2022-12-18T08:02:33;-5.70;99.90
58951;DHT22;44730;53.158;6.398;2022-12-18T08:04:59;-3.70;99.90
58951;DHT22;44730;53.158;6.398;2022-12-18T08:07:24;-5.30;99.90
58951;DHT22;44730;53.158;6.398;2022-12-18T08:09:50;-5.20;99.90
58951;DHT22;44730;53.158;6.398;2022-12-18T08:12:16;-5.50;99.90
58951;DHT22;44730;53.158;6.398;2022-12-18T08:14:41;-5.50;99.90
58951;DHT22;44730;53.158;6.398;2022-12-18T08:17:07;-5.40;99.90
58951;DHT22;44730;53.158;6.398;2022-12-18T08:19:33;-5.40;99.90
58951;DHT22;44730;53.158;6.398;2022-12-18T08:21:58;-5.30;99.90
58951;DHT22;44730;53.158;6.398;2022-12-18T08:24:24;-5.20;99.90
58951;DHT22;44730;53.158;6.398;2022-12-18T08:26:51;-5.20;99.90
58951;DHT22;44730;53.158;6.398;2022-12-18T08:29:16;-5.20;99.90
58951;DHT22;44730;53.158;6.398;2022-12-18T08:31:42;-3.60;99.90
58951;DHT22;44730;53.158;6.398;2022-12-18T08:34:08;-5.00;99.90
58951;DHT22;44730;53.158;6.398;2022-12-18T08:36:34;-4.90;99.90
58951;DHT22;44730;53.158;6.398;2022-12-18T08:39:00;-4.90;99.90
58951;DHT22;44730;53.158;6.398;2022-12-18T08:41:26;-4.80;99.90
58951;DHT22;44730;53.158;6.398;2022-12-18T08:43:52;-4.80;99.90
58951;DHT22;44730;53.158;6.398;2022-12-18T08:46:38;-4.80;99.90
58951;DHT22;44730;53.158;6.398;2022-12-18T08:49:08;-4.70;99.90
58951;DHT22;44730;53.158;6.398;2022-12-18T08:51:34;-4.60;99.90
58951;DHT22;44730;53.158;6.398;2022-12-18T08:54:00;-4.60;99.90
58951;DHT22;44730;53.158;6.398;2022-12-18T08:56:25;-3.50;99.90
58951;DHT22;44730;53.158;6.398;2022-12-18T08:58:53;-3.90;99.90
58951;DHT22;44730;53.158;6.398;2022-12-18T09:01:19;-4.40;99.90
58951;DHT22;44730;53.158;6.398;2022-12-18T09:03:45;-4.30;99.90
58951;DHT22;44730;53.158;6.398;2022-12-18T09:06:16;-1.90;99.90
58951;DHT22;44730;53.158;6.398;2022-12-18T09:08:43;-3.80;99.90
58951;DHT22;44730;53.158;6.398;2022-12-18T09:11:14;-3.50;99.90
58951;DHT22;44730;53.158;6.398;2022-12-18T09:13:43;-3.20;99.90
58951;DHT22;44730;53.158;6.398;2022-12-18T09:16:08;-3.20;99.90
58951;DHT22;44730;53.158;6.398;2022-12-18T09:18:35;-3.10;99.90
58951;DHT22;44730;53.158;6.398;2022-12-18T09:21:11;-3.20;99.90
58951;DHT22;44730;53.158;6.398;2022-12-18T09:23:37;-3.30;99.90
58951;DHT22;44730;53.158;6.398;2022-12-18T09:26:03;-3.30;99.90
58951;DHT22;44730;53.158;6.398;2022-12-18T09:28:29;-2.90;99.90
58951;DHT22;44730;53.158;6.398;2022-12-18T09:30:55;-3.30;99.90
58951;DHT22;44730;53.158;6.398;2022-12-18T09:33:20;-3.40;99.90
58951;DHT22;44730;53.158;6.398;2022-12-18T09:35:46;-3.30;99.90
58951;DHT22;44730;53.158;6.398;2022-12-18T09:38:14;-3.30;99.90
58951;DHT22;44730;53.158;6.398;2022-12-18T09:40:53;-3.30;99.90
58951;DHT22;44730;53.158;6.398;2022-12-18T09:43:43;-3.10;99.90
58951;DHT22;44730;53.158;6.398;2022-12-18T09:46:20;-3.10;99.90
58951;DHT22;44730;53.158;6.398;2022-12-18T09:48:49;-2.40;99.90
58951;DHT22;44730;53.158;6.398;2022-12-18T09:51:27;-3.30;99.90
58951;DHT22;44730;53.158;6.398;2022-12-18T09:53:58;-3.20;99.90
58951;DHT22;44730;53.158;6.398;2022-12-18T09:56:28;-3.20;99.90
58951;DHT22;44730;53.158;6.398;2022-12-18T09:59:01;-3.30;99.90
58951;DHT22;44730;53.158;6.398;2022-12-18T10:01:29;-3.30;99.90
58951;DHT22;44730;53.158;6.398;2022-12-18T10:03:56;-3.30;99.90
58951;DHT22;44730;53.158;6.398;2022-12-18T10:06:37;-3.50;99.90
58951;DHT22;44730;53.158;6.398;2022-12-18T10:12:41;-3.40;99.90
58951;DHT22;44730;53.158;6.398;2022-12-18T10:18:53;-3.50;99.90
58951;DHT22;44730;53.158;6.398;2022-12-18T10:21:40;-3.50;99.90
58951;DHT22;44730;53.158;6.398;2022-12-18T10:26:52;-3.50;99.90
58951;DHT22;44730;53.158;6.398;2022-12-18T10:29:21;-3.50;99.90
58951;DHT22;44730;53.158;6.398;2022-12-18T10:31:47;-3.50;99.90
58951;DHT22;44730;53.158;6.398;2022-12-18T10:34:13;-3.50;99.90
58951;DHT22;44730;53.158;6.398;2022-12-18T10:36:39;-3.40;99.90
58951;DHT22;44730;53.158;6.398;2022-12-18T10:39:23;-1.60;99.90
58951;DHT22;44730;53.158;6.398;2022-12-18T10:41:50;-3.30;99.90
58951;DHT22;44730;53.158;6.398;2022-12-18T10:44:19;-3.30;99.90
58951;DHT22;44730;53.158;6.398;2022-12-18T10:46:48;-3.30;99.90
58951;DHT22;44730;53.158;6.398;2022-12-18T10:49:27;-3.20;99.90
58951;DHT22;44730;53.158;6.398;2022-12-18T10:52:31;-3.20;99.90
58951;DHT22;44730;53.158;6.398;2022-12-18T10:54:59;-3.10;99.90
58951;DHT22;44730;53.158;6.398;2022-12-18T10:57:35;-3.00;99.90
58951;DHT22;44730;53.158;6.398;2022-12-18T11:00:28;-3.00;99.90
58951;DHT22;44730;53.158;6.398;2022-12-18T11:02:55;-2.90;99.90
58951;DHT22;44730;53.158;6.398;2022-12-18T11:05:34;-2.80;99.90
58951;DHT22;44730;53.158;6.398;2022-12-18T11:08:02;-2.80;99.90
58951;DHT22;44730;53.158;6.398;2022-12-18T11:10:38;-2.70;99.90
58951;DHT22;44730;53.158;6.398;2022-12-18T11:13:18;-2.80;99.90
58951;DHT22;44730;53.158;6.398;2022-12-18T11:15:46;-2.60;99.90
58951;DHT22;44730;53.158;6.398;2022-12-18T11:18:33;-2.60;99.90
58951;DHT22;44730;53.158;6.398;2022-12-18T11:23:32;-2.60;99.90
58951;DHT22;44730;53.158;6.398;2022-12-18T11:25:59;-0.90;99.90
58951;DHT22;44730;53.158;6.398;2022-12-18T11:28:37;-2.60;99.90
58951;DHT22;44730;53.158;6.398;2022-12-18T11:31:18;-2.50;99.90
58951;DHT22;44730;53.158;6.398;2022-12-18T11:36:18;-2.50;99.90
58951;DHT22;44730;53.158;6.398;2022-12-18T11:38:45;-2.50;99.90
58951;DHT22;44730;53.158;6.398;2022-12-18T11:41:42;-2.40;99.90
58951;DHT22;44730;53.158;6.398;2022-12-18T11:44:58;-2.40;99.90
58951;DHT22;44730;53.158;6.398;2022-12-18T11:53:21;-2.30;99.90
58951;DHT22;44730;53.158;6.398;2022-12-18T12:01:15;-2.30;99.90
58951;DHT22;44730;53.158;6.398;2022-12-18T12:03:49;-2.30;99.90
58951;DHT22;44730;53.158;6.398;2022-12-18T12:15:13;-2.10;99.90
58951;DHT22;44730;53.158;6.398;2022-12-18T12:17:47;-2.10;99.90
58951;DHT22;44730;53.158;6.398;2022-12-18T12:20:22;-2.10;99.90
58951;DHT22;44730;53.158;6.398;2022-12-18T12:23:21;-2.10;99.90
58951;DHT22;44730;53.158;6.398;2022-12-18T12:26:02;-0.20;99.90
58951;DHT22;44730;53.158;6.398;2022-12-18T12:31:29;-2.00;99.90
58951;DHT22;44730;53.158;6.398;2022-12-18T12:34:17;-2.00;99.90
58951;DHT22;44730;53.158;6.398;2022-12-18T12:39:48;-1.90;99.90
58951;DHT22;44730;53.158;6.398;2022-12-18T12:42:24;-1.80;99.90
58951;DHT22;44730;53.158;6.398;2022-12-18T12:45:23;-1.80;99.90
58951;DHT22;44730;53.158;6.398;2022-12-18T12:47:52;-1.80;99.90
58951;DHT22;44730;53.158;6.398;2022-12-18T12:50:20;-0.70;99.90
58951;DHT22;44730;53.158;6.398;2022-12-18T12:52:55;-1.70;99.90
58951;DHT22;44730;53.158;6.398;2022-12-18T12:55:24;-1.60;99.90
58951;DHT22;44730;53.158;6.398;2022-12-18T13:00:18;-0.20;99.90
58951;DHT22;44730;53.158;6.398;2022-12-18T13:02:51;0.20;99.90
58951;DHT22;44730;53.158;6.398;2022-12-18T13:05:53;-1.50;99.90
58951;DHT22;44730;53.158;6.398;2022-12-18T13:08:30;-1.40;99.90
58951;DHT22;44730;53.158;6.398;2022-12-18T13:11:36;-1.40;99.90
58951;DHT22;44730;53.158;6.398;2022-12-18T13:14:33;-1.40;99.90
58951;DHT22;44730;53.158;6.398;2022-12-18T13:19:52;-1.30;99.90
58951;DHT22;44730;53.158;6.398;2022-12-18T13:22:54;-1.30;99.90
58951;DHT22;44730;53.158;6.398;2022-12-18T13:25:35;-1.30;99.90
58951;DHT22;44730;53.158;6.398;2022-12-18T13:38:39;0.60;99.90
58951;DHT22;44730;53.158;6.398;2022-12-18T13:43:43;-1.10;99.90
58951;DHT22;44730;53.158;6.398;2022-12-18T13:46:48;-1.20;99.90
58951;DHT22;44730;53.158;6.398;2022-12-18T13:51:51;-1.20;99.90
58951;DHT22;44730;53.158;6.398;2022-12-18T13:54:35;-1.10;99.90
58951;DHT22;44730;53.158;6.398;2022-12-18T13:57:02;-1.10;99.90
58951;DHT22;44730;53.158;6.398;2022-12-18T13:59:39;-1.10;99.90
58951;DHT22;44730;53.158;6.398;2022-12-18T14:02:25;-1.10;99.90
58951;DHT22;44730;53.158;6.398;2022-12-18T14:04:52;-1.20;99.90
58951;DHT22;44730;53.158;6.398;2022-12-18T14:07:21;-1.20;99.90
58951;DHT22;44730;53.158;6.398;2022-12-18T14:09:55;0.40;99.90
58951;DHT22;44730;53.158;6.398;2022-12-18T14:12:27;0.10;99.90
58951;DHT22;44730;53.158;6.398;2022-12-18T14:15:32;-1.20;99.90
58951;DHT22;44730;53.158;6.398;2022-12-18T14:20:48;-1.20;99.90
58951;DHT22;44730;53.158;6.398;2022-12-18T14:25:55;-1.30;99.90
58951;DHT22;44730;53.158;6.398;2022-12-18T14:28:20;-1.30;99.90
58951;DHT22;44730;53.158;6.398;2022-12-18T14:30:48;-1.40;99.90
58951;DHT22;44730;53.158;6.398;2022-12-18T14:33:20;-1.30;99.90
58951;DHT22;44730;53.158;6.398;2022-12-18T14:36:03;-1.30;99.90
58951;DHT22;44730;53.158;6.398;2022-12-18T14:38:37;-1.30;99.90
58951;DHT22;44730;53.158;6.398;2022-12-18T14:41:04;-1.30;99.90
58951;DHT22;44730;53.158;6.398;2022-12-18T14:43:38;-1.30;99.90
58951;DHT22;44730;53.158;6.398;2022-12-18T14:51:31;-1.40;99.90
58951;DHT22;44730;53.158;6.398;2022-12-18T14:59:11;-0.40;99.90
58951;DHT22;44730;53.158;6.398;2022-12-18T15:07:15;-1.40;99.90
58951;DHT22;44730;53.158;6.398;2022-12-18T15:09:44;-1.40;99.90
58951;DHT22;44730;53.158;6.398;2022-12-18T15:15:41;-1.50;99.90
58951;DHT22;44730;53.158;6.398;2022-12-18T15:17:59;-1.50;99.90
58951;DHT22;44730;53.158;6.398;2022-12-18T15:20:25;-1.50;99.90
58951;DHT22;44730;53.158;6.398;2022-12-18T15:22:51;-1.50;99.90
58951;DHT22;44730;53.158;6.398;2022-12-18T15:25:35;-1.10;99.90
58951;DHT22;44730;53.158;6.398;2022-12-18T15:28:03;-1.60;99.90
58951;DHT22;44730;53.158;6.398;2022-12-18T15:30:29;-1.60;99.90
58951;DHT22;44730;53.158;6.398;2022-12-18T15:33:25;0.00;99.90
58951;DHT22;44730;53.158;6.398;2022-12-18T15:35:59;-1.60;99.90
58951;DHT22;44730;53.158;6.398;2022-12-18T15:38:26;-1.60;99.90
58951;DHT22;44730;53.158;6.398;2022-12-18T15:40:53;-1.40;99.90
58951;DHT22;44730;53.158;6.398;2022-12-18T15:43:21;-1.60;99.90
58951;DHT22;44730;53.158;6.398;2022-12-18T15:46:11;-1.60;99.90
58951;DHT22;44730;53.158;6.398;2022-12-18T15:48:45;-1.60;99.90
58951;DHT22;44730;53.158;6.398;2022-12-18T15:51:33;-1.60;99.90
58951;DHT22;44730;53.158;6.398;2022-12-18T15:54:02;-1.60;99.90
58951;DHT22;44730;53.158;6.398;2022-12-18T15:56:29;-1.60;99.90
58951;DHT22;44730;53.158;6.398;2022-12-18T15:59:19;-1.70;99.90
58951;DHT22;44730;53.158;6.398;2022-12-18T16:01:47;-1.70;99.90
58951;DHT22;44730;53.158;6.398;2022-12-18T16:04:17;-1.70;99.90
58951;DHT22;44730;53.158;6.398;2022-12-18T16:06:45;-1.80;99.90
58951;DHT22;44730;53.158;6.398;2022-12-18T16:09:11;-1.70;99.90
58951;DHT22;44730;53.158;6.398;2022-12-18T16:11:37;-1.70;99.90
58951;DHT22;44730;53.158;6.398;2022-12-18T16:14:21;-0.20;99.90
58951;DHT22;44730;53.158;6.398;2022-12-18T16:16:49;-1.70;99.90
58951;DHT22;44730;53.158;6.398;2022-12-18T16:19:15;-1.20;99.90
58951;DHT22;44730;53.158;6.398;2022-12-18T16:21:42;-1.80;99.90
58951;DHT22;44730;53.158;6.398;2022-12-18T16:24:22;-1.70;99.90
58951;DHT22;44730;53.158;6.398;2022-12-18T16:26:49;-0.90;99.90
58951;DHT22;44730;53.158;6.398;2022-12-18T16:29:17;-1.80;99.90
58951;DHT22;44730;53.158;6.398;2022-12-18T16:31:43;-0.10;99.90
58951;DHT22;44730;53.158;6.398;2022-12-18T16:34:29;-0.60;99.90
58951;DHT22;44730;53.158;6.398;2022-12-18T16:37:03;-1.70;99.90
58951;DHT22;44730;53.158;6.398;2022-12-18T16:39:29;-1.70;99.90
58951;DHT22;44730;53.158;6.398;2022-12-18T16:41:56;-0.20;99.90
58951;DHT22;44730;53.158;6.398;2022-12-18T16:44:22;-1.70;99.90
58951;DHT22;44730;53.158;6.398;2022-12-18T16:46:50;-1.70;99.90
58951;DHT22;44730;53.158;6.398;2022-12-18T16:49:19;-1.70;99.90
58951;DHT22;44730;53.158;6.398;2022-12-18T16:51:46;-1.70;99.90
58951;DHT22;44730;53.158;6.398;2022-12-18T16:54:12;-0.10;99.90
58951;DHT22;44730;53.158;6.398;2022-12-18T16:56:38;-1.70;99.90
58951;DHT22;44730;53.158;6.398;2022-12-18T16:59:04;-1.70;99.90
58951;DHT22;44730;53.158;6.398;2022-12-18T17:01:31;-1.70;99.90
58951;DHT22;44730;53.158;6.398;2022-12-18T17:04:03;-1.60;99.90
58951;DHT22;44730;53.158;6.398;2022-12-18T17:06:32;-1.60;99.90
58951;DHT22;44730;53.158;6.398;2022-12-18T17:08:59;-1.60;99.90
58951;DHT22;44730;53.158;6.398;2022-12-18T17:11:27;-1.60;99.90
58951;DHT22;44730;53.158;6.398;2022-12-18T17:13:53;-0.90;99.90
58951;DHT22;44730;53.158;6.398;2022-12-18T17:16:20;-1.50;99.90
58951;DHT22;44730;53.158;6.398;2022-12-18T17:18:45;-1.50;99.90
58951;DHT22;44730;53.158;6.398;2022-12-18T17:21:12;0.50;99.90
58951;DHT22;44730;53.158;6.398;2022-12-18T17:23:40;-1.50;99.90
58951;DHT22;44730;53.158;6.398;2022-12-18T17:26:06;-1.50;99.90
58951;DHT22;44730;53.158;6.398;2022-12-18T17:28:34;-1.40;99.90
58951;DHT22;44730;53.158;6.398;2022-12-18T17:31:00;-0.80;99.90
58951;DHT22;44730;53.158;6.398;2022-12-18T17:33:26;-1.40;99.90
58951;DHT22;44730;53.158;6.398;2022-12-18T17:35:52;-1.40;99.90
58951;DHT22;44730;53.158;6.398;2022-12-18T17:38:18;-1.40;99.90
58951;DHT22;44730;53.158;6.398;2022-12-18T17:40:44;-1.40;99.90